createdAt,value
2023-02-08T00:00:15.268Z,23.23
2023-02-08T00:02:18.354Z,23.38
2023-02-08T00:04:22.836Z,23.38
2023-02-08T00:06:25.831Z,23.50
2023-02-08T00:08:28.991Z,24.00
2023-02-08T00:10:32.525Z,22.73
2023-02-08T00:12:35.581Z,23.30
2023-02-08T00:14:38.614Z,22.45
2023-02-08T00:16:41.653Z,21.45
2023-02-08T00:18:44.773Z,22.35
2023-02-08T00:20:49.240Z,22.45
2023-02-08T00:22:53.439Z,22.52
2023-02-08T00:24:56.580Z,22.63
2023-02-08T00:26:59.603Z,21.83
2023-02-08T00:29:02.705Z,22.40
2023-02-08T00:31:06.681Z,23.10
2023-02-08T00:33:11.016Z,23.75
2023-02-08T00:35:14.213Z,23.23
2023-02-08T00:37:19.163Z,23.58
2023-02-08T00:39:24.462Z,22.80
2023-02-08T00:41:28.250Z,23.38
2023-02-08T00:43:31.294Z,22.13
2023-02-08T00:45:34.877Z,22.45
2023-02-08T00:47:37.973Z,22.58
2023-02-08T00:49:40.994Z,21.98
2023-02-08T00:51:44.044Z,22.65
2023-02-08T00:53:49.287Z,23.83
2023-02-08T00:55:52.852Z,23.80
2023-02-08T00:57:55.966Z,22.15
2023-02-08T00:59:58.991Z,23.17
2023-02-08T01:02:02.125Z,21.13
2023-02-08T01:04:05.511Z,22.02
2023-02-08T01:06:11.714Z,21.92
2023-02-08T01:08:15.114Z,22.55
2023-02-08T01:10:19.534Z,22.35
2023-02-08T01:12:22.592Z,21.95
2023-02-08T01:14:26.095Z,22.75
2023-02-08T01:16:31.910Z,22.35
2023-02-08T01:18:36.609Z,21.90
2023-02-08T01:20:39.825Z,21.52
2023-02-08T01:22:43.042Z,21.83
2023-02-08T01:24:46.113Z,21.90
2023-02-08T01:26:50.517Z,21.60
2023-02-08T01:28:55.495Z,21.00
2023-02-08T01:30:59.331Z,20.90
2023-02-08T01:33:02.344Z,19.98
2023-02-08T01:35:05.905Z,22.35
2023-02-08T01:37:08.886Z,21.27
2023-02-08T01:39:12.762Z,21.27
2023-02-08T01:41:18.988Z,20.67
2023-02-08T01:43:26.452Z,21.02
2023-02-08T01:45:31.869Z,20.88
2023-02-08T01:47:35.034Z,21.00
2023-02-08T01:49:39.080Z,21.23
2023-02-08T01:51:46.772Z,21.60
2023-02-08T01:53:52.070Z,21.25
2023-02-08T01:55:58.587Z,21.20
2023-02-08T01:58:04.866Z,21.92
2023-02-08T02:00:15.198Z,22.40
2023-02-08T02:02:22.698Z,20.55
2023-02-08T02:04:27.384Z,21.65
2023-02-08T02:06:35.001Z,21.38
2023-02-08T02:08:39.271Z,23.15
2023-02-08T02:10:43.526Z,21.23
2023-02-08T02:12:47.452Z,20.98
2023-02-08T02:14:50.871Z,21.73
2023-02-08T02:16:55.302Z,20.70
2023-02-08T02:18:58.595Z,21.13
2023-02-08T02:21:41.040Z,21.67
2023-02-08T02:24:19.436Z,20.75
2023-02-08T02:27:03.924Z,20.33
2023-02-08T02:29:28.314Z,21.38
2023-02-08T02:31:57.634Z,21.98
2023-02-08T02:34:08.165Z,22.70
2023-02-08T02:36:22.289Z,20.35
2023-02-08T02:38:35.492Z,22.05
2023-02-08T02:40:50.997Z,20.90
2023-02-08T02:43:21.588Z,20.50
2023-02-08T02:45:32.181Z,19.90
2023-02-08T02:47:42.360Z,16.70
2023-02-08T02:49:51.882Z,20.83
2023-02-08T02:51:59.794Z,21.60
2023-02-08T02:54:09.583Z,21.60
2023-02-08T02:56:16.885Z,21.75
2023-02-08T02:58:25.933Z,22.38
2023-02-08T03:00:31.006Z,21.65
2023-02-08T03:02:34.039Z,21.02
2023-02-08T03:04:54.212Z,21.60
2023-02-08T03:07:07.078Z,21.48
2023-02-08T03:09:26.759Z,21.40
2023-02-08T03:11:34.041Z,22.52
2023-02-08T03:13:52.675Z,21.77
2023-02-08T03:16:04.409Z,20.85
2023-02-08T03:18:22.487Z,21.65
2023-02-08T03:20:31.854Z,22.80
2023-02-08T03:22:44.424Z,22.58
2023-02-08T03:24:55.259Z,22.15
2023-02-08T03:27:04.798Z,23.15
2023-02-08T03:29:15.771Z,22.02
2023-02-08T03:31:25.926Z,21.60
2023-02-08T03:33:36.264Z,21.92
2023-02-08T03:35:46.196Z,22.58
2023-02-08T03:37:55.165Z,23.25
2023-02-08T03:40:05.238Z,22.85
2023-02-08T03:42:16.172Z,23.40
2023-02-08T03:44:24.365Z,23.52
2023-02-08T03:46:30.821Z,23.38
2023-02-08T03:48:37.401Z,23.42
2023-02-08T03:50:45.288Z,23.92
2023-02-08T03:52:49.822Z,24.67
2023-02-08T03:54:56.586Z,24.48
2023-02-08T03:57:07.846Z,25.10
2023-02-08T03:59:15.983Z,24.00
2023-02-08T04:01:24.662Z,23.27
2023-02-08T04:03:31.557Z,25.08
2023-02-08T04:05:34.833Z,23.05
2023-02-08T04:07:39.377Z,24.38
2023-02-08T04:09:42.489Z,24.63
2023-02-08T04:11:45.516Z,24.30
2023-02-08T04:13:48.658Z,24.48
2023-02-08T04:15:51.697Z,23.77
2023-02-08T04:17:55.052Z,22.90
2023-02-08T04:19:58.134Z,23.75
2023-02-08T04:22:01.208Z,23.55
2023-02-08T04:24:05.837Z,24.27
2023-02-08T04:26:09.997Z,24.63
2023-02-08T04:28:13.095Z,23.90
2023-02-08T04:30:16.230Z,24.23
2023-02-08T04:32:19.363Z,25.45
2023-02-08T04:34:22.502Z,25.15
2023-02-08T04:36:25.617Z,25.23
2023-02-08T04:38:28.712Z,25.13
2023-02-08T04:40:33.371Z,24.13
2023-02-08T04:42:36.525Z,25.08
2023-02-08T04:44:39.622Z,25.88
2023-02-08T04:46:42.877Z,25.48
2023-02-08T04:48:46.075Z,24.45
2023-02-08T04:50:49.224Z,25.98
2023-02-08T04:52:52.280Z,25.55
2023-02-08T04:54:55.319Z,26.17
2023-02-08T04:56:59.718Z,26.23
2023-02-08T04:59:03.859Z,24.85
2023-02-08T05:01:08.328Z,26.05
2023-02-08T05:03:11.622Z,25.42
2023-02-08T05:05:14.775Z,24.23
2023-02-08T05:07:17.793Z,25.23
2023-02-08T05:09:20.817Z,26.52
2023-02-08T05:11:25.051Z,25.40
2023-02-08T05:13:29.563Z,25.75
2023-02-08T05:15:32.546Z,26.73
2023-02-08T05:17:35.601Z,25.38
2023-02-08T05:19:38.636Z,26.00
2023-02-08T05:21:41.777Z,28.02
2023-02-08T05:23:46.755Z,26.70
2023-02-08T05:25:49.957Z,26.48
2023-02-08T05:27:53.092Z,27.00
2023-02-08T05:29:59.004Z,28.05
2023-02-08T05:32:02.357Z,26.75
2023-02-08T05:34:05.525Z,27.67
2023-02-08T05:36:09.072Z,28.25
2023-02-08T05:38:12.305Z,27.77
2023-02-08T05:40:15.441Z,28.25
2023-02-08T05:42:18.492Z,28.17
2023-02-08T05:44:21.637Z,28.40
2023-02-08T05:46:26.232Z,27.98
2023-02-08T05:48:30.838Z,27.48
2023-02-08T05:50:34.439Z,26.25
2023-02-08T05:52:37.633Z,26.80
2023-02-08T05:54:40.743Z,28.05
2023-02-08T05:56:43.843Z,27.33
2023-02-08T05:58:46.869Z,27.50
2023-02-08T06:00:49.925Z,27.58
2023-02-08T06:02:54.441Z,26.67
2023-02-08T06:04:57.484Z,25.90
2023-02-08T06:07:00.471Z,27.25
2023-02-08T06:09:03.484Z,26.50
2023-02-08T06:11:07.303Z,28.42
2023-02-08T06:13:10.369Z,27.15
2023-02-08T06:15:13.529Z,26.90
2023-02-08T06:17:16.532Z,28.08
2023-02-08T06:19:21.164Z,27.98
2023-02-08T06:21:24.656Z,26.10
2023-02-08T06:23:27.773Z,26.38
2023-02-08T06:25:30.775Z,26.92
2023-02-08T06:27:33.824Z,26.58
2023-02-08T06:29:36.907Z,27.48
2023-02-08T06:31:40.193Z,26.92
2023-02-08T06:33:43.725Z,28.48
2023-02-08T06:35:48.829Z,27.65
2023-02-08T06:37:51.868Z,28.05
2023-02-08T06:39:54.868Z,25.60
2023-02-08T06:41:58.672Z,28.35
2023-02-08T06:44:02.407Z,27.30
2023-02-08T06:46:08.563Z,27.80
2023-02-08T06:48:11.663Z,27.85
2023-02-08T06:50:15.485Z,27.60
2023-02-08T06:52:20.646Z,26.85
2023-02-08T06:54:23.690Z,28.73
2023-02-08T06:56:26.819Z,26.95
2023-02-08T06:58:29.881Z,27.17
2023-02-08T07:00:32.922Z,28.38
2023-02-08T07:02:36.060Z,27.83
2023-02-08T07:04:39.294Z,27.85
2023-02-08T07:06:42.399Z,26.95
2023-02-08T07:08:48.020Z,28.33
2023-02-08T07:10:51.045Z,27.35
2023-02-08T07:12:54.060Z,28.48
2023-02-08T07:14:57.099Z,28.00
2023-02-08T07:17:00.449Z,27.45
2023-02-08T07:19:03.546Z,27.20
2023-02-08T07:21:07.013Z,27.55
2023-02-08T07:23:11.571Z,27.77
2023-02-08T07:25:16.002Z,27.00
2023-02-08T07:27:19.058Z,27.35
2023-02-08T07:29:22.223Z,27.45
2023-02-08T07:31:25.260Z,27.33
2023-02-08T07:33:28.362Z,27.25
2023-02-08T07:35:31.421Z,28.08
2023-02-08T07:37:34.464Z,26.73
2023-02-08T07:39:37.575Z,27.20
2023-02-08T07:41:44.699Z,27.15
2023-02-08T07:43:47.975Z,26.38
2023-02-08T07:45:51.172Z,27.50
2023-02-08T07:47:54.327Z,26.95
2023-02-08T07:49:57.401Z,27.17
2023-02-08T07:52:00.816Z,26.63
2023-02-08T07:54:03.949Z,26.90
2023-02-08T07:56:08.161Z,26.70
2023-02-08T07:58:12.673Z,26.98
2023-02-08T08:00:17.674Z,27.40
2023-02-08T08:02:20.735Z,27.58
2023-02-08T08:04:23.800Z,27.58
2023-02-08T08:06:27.075Z,27.73
2023-02-08T08:08:30.165Z,26.10
2023-02-08T08:10:33.166Z,27.05
2023-02-08T08:12:36.206Z,26.25
2023-02-08T08:14:40.610Z,26.40
2023-02-08T08:16:43.843Z,26.45
2023-02-08T08:18:47.417Z,27.80
2023-02-08T08:20:50.394Z,26.70
2023-02-08T08:22:53.632Z,26.67
2023-02-08T08:24:58.192Z,25.67
2023-02-08T08:27:01.524Z,26.27
2023-02-08T08:29:05.003Z,25.70
2023-02-08T08:31:12.925Z,25.25
2023-02-08T08:33:16.076Z,25.88
2023-02-08T08:35:19.216Z,25.60
2023-02-08T08:37:22.237Z,26.45
2023-02-08T08:39:27.251Z,26.45
2023-02-08T08:41:30.238Z,26.58
2023-02-08T08:43:33.281Z,24.65
2023-02-08T08:45:36.607Z,25.85
2023-02-08T08:47:44.546Z,25.13
2023-02-08T08:49:48.764Z,25.48
2023-02-08T08:51:51.977Z,25.92
2023-02-08T08:53:54.985Z,25.52
2023-02-08T08:55:58.010Z,24.88
2023-02-08T08:58:01.019Z,25.42
2023-02-08T09:00:05.468Z,25.45
2023-02-08T09:02:08.551Z,24.17
2023-02-08T09:04:13.184Z,23.40
2023-02-08T09:06:16.228Z,23.73
2023-02-08T09:08:19.665Z,24.20
2023-02-08T09:10:22.680Z,23.60
2023-02-08T09:12:25.750Z,24.88
2023-02-08T09:14:28.972Z,25.40
2023-02-08T09:16:32.117Z,24.42
2023-02-08T09:18:35.413Z,24.33
2023-02-08T09:20:44.667Z,23.52
2023-02-08T09:22:53.896Z,23.42
2023-02-08T09:24:57.800Z,23.45
2023-02-08T09:27:02.009Z,23.85
2023-02-08T09:29:06.641Z,24.10
2023-02-08T09:31:10.842Z,23.70
2023-02-08T09:33:13.880Z,24.67
2023-02-08T09:35:16.909Z,24.33
2023-02-08T09:37:21.501Z,24.45
2023-02-08T09:39:26.514Z,24.05
2023-02-08T09:41:46.807Z,23.77
2023-02-08T09:43:59.040Z,23.92
2023-02-08T09:46:06.962Z,23.17
2023-02-08T09:48:19.450Z,23.33
2023-02-08T09:50:29.592Z,23.50
2023-02-08T09:52:40.040Z,23.27
2023-02-08T09:54:48.049Z,22.63
2023-02-08T09:56:52.087Z,22.70
2023-02-08T09:58:57.630Z,23.60
2023-02-08T10:01:03.118Z,23.10
2023-02-08T10:03:16.911Z,23.42
2023-02-08T10:05:23.526Z,22.63
2023-02-08T10:07:27.548Z,22.75
2023-02-08T10:09:31.966Z,22.20
2023-02-08T10:11:49.078Z,23.10
2023-02-08T10:14:05.036Z,23.60
2023-02-08T10:16:19.496Z,23.20
2023-02-08T10:18:35.323Z,23.30
2023-02-08T10:20:57.405Z,23.77
2023-02-08T10:23:09.700Z,24.63
2023-02-08T10:25:23.301Z,23.92
2023-02-08T10:27:39.934Z,23.35
2023-02-08T10:30:11.570Z,22.15
2023-02-08T10:32:35.285Z,23.17
2023-02-08T10:34:45.910Z,21.27
2023-02-08T10:36:48.881Z,22.73
2023-02-08T10:38:54.939Z,22.42
2023-02-08T10:41:01.165Z,22.48
2023-02-08T10:43:20.671Z,22.35
2023-02-08T10:45:28.745Z,21.00
2023-02-08T10:47:44.216Z,20.73
2023-02-08T10:49:55.221Z,20.90
2023-02-08T10:51:58.344Z,21.83
2023-02-08T10:54:01.437Z,21.83
2023-02-08T10:56:07.037Z,22.45
2023-02-08T10:58:18.030Z,21.77
2023-02-08T11:00:24.576Z,22.58
2023-02-08T11:02:30.786Z,21.85
2023-02-08T11:04:33.915Z,21.88
2023-02-08T11:06:37.513Z,21.13
2023-02-08T11:08:55.841Z,22.55
2023-02-08T11:11:04.160Z,21.65
2023-02-08T11:13:19.119Z,21.00
2023-02-08T11:15:24.431Z,21.98
2023-02-08T11:17:30.645Z,21.83
2023-02-08T11:19:39.181Z,22.90
2023-02-08T11:21:45.334Z,23.90
2023-02-08T11:23:52.485Z,23.63
2023-02-08T11:25:56.918Z,22.05
2023-02-08T11:28:01.000Z,21.60
2023-02-08T11:30:23.484Z,23.02
2023-02-08T11:32:26.774Z,22.63
2023-02-08T11:34:32.780Z,24.02
2023-02-08T11:36:37.053Z,23.30
2023-02-08T11:38:44.012Z,23.13
2023-02-08T11:40:47.436Z,23.40
2023-02-08T11:42:51.303Z,23.35
2023-02-08T11:44:55.696Z,22.27
2023-02-08T11:47:02.377Z,22.70
2023-02-08T11:49:05.791Z,23.20
2023-02-08T11:51:09.888Z,23.52
2023-02-08T11:53:27.701Z,23.48
2023-02-08T11:55:33.432Z,23.00
2023-02-08T11:57:36.573Z,22.75
2023-02-08T11:59:39.950Z,22.60
2023-02-08T12:01:43.981Z,21.35
2023-02-08T12:03:51.656Z,21.83
2023-02-08T12:06:12.370Z,22.02
2023-02-08T12:08:25.020Z,16.00
2023-02-08T12:11:01.188Z,22.00
2023-02-08T12:13:30.107Z,22.08
2023-02-08T12:15:57.056Z,21.55
2023-02-08T12:18:13.245Z,21.23
2023-02-08T12:20:36.856Z,20.92
2023-02-08T12:22:43.277Z,21.42
2023-02-08T12:24:51.365Z,21.17
2023-02-08T12:27:07.551Z,20.25
2023-02-08T12:29:23.454Z,20.48
2023-02-08T12:31:37.922Z,19.92
2023-02-08T12:33:48.549Z,21.10
2023-02-08T12:36:10.553Z,20.93
2023-02-08T12:38:41.020Z,20.98
2023-02-08T12:40:53.858Z,21.13
2023-02-08T12:43:08.776Z,20.08
2023-02-08T12:45:40.429Z,20.17
2023-02-08T12:48:04.129Z,19.48
2023-02-08T12:50:20.696Z,18.50
2023-02-08T12:52:35.321Z,18.95
2023-02-08T12:54:42.594Z,20.00
2023-02-08T12:57:00.336Z,19.38
2023-02-08T12:59:13.467Z,19.13
2023-02-08T13:01:20.508Z,18.58
2023-02-08T13:03:36.394Z,19.13
2023-02-08T13:05:53.532Z,17.73
2023-02-08T13:08:07.965Z,17.30
2023-02-08T13:10:20.751Z,18.40
2023-02-08T13:12:28.062Z,17.33
2023-02-08T13:14:35.548Z,17.58
2023-02-08T13:16:44.661Z,17.88
2023-02-08T13:18:51.658Z,17.20
2023-02-08T13:20:59.343Z,18.15
2023-02-08T13:23:13.399Z,17.75
2023-02-08T13:25:30.918Z,18.75
2023-02-08T13:27:33.978Z,16.05
2023-02-08T13:29:37.516Z,16.52
2023-02-08T13:31:44.211Z,15.98
2023-02-08T13:34:01.295Z,16.25
2023-02-08T13:36:05.998Z,15.75
2023-02-08T13:38:23.563Z,16.15
2023-02-08T13:40:30.547Z,16.17
2023-02-08T13:42:39.640Z,15.60
2023-02-08T13:44:42.798Z,15.95
2023-02-08T13:46:47.935Z,17.02
2023-02-08T13:48:53.620Z,15.85
2023-02-08T13:50:57.308Z,16.50
2023-02-08T13:53:00.894Z,16.70
2023-02-08T13:55:55.859Z,16.58
2023-02-08T13:58:01.740Z,15.02
2023-02-08T14:00:23.139Z,15.75
2023-02-08T14:02:30.635Z,15.38
2023-02-08T14:04:36.958Z,15.38
2023-02-08T14:06:50.888Z,14.77
2023-02-08T14:08:59.180Z,15.25
2023-02-08T14:11:12.166Z,14.25
2023-02-08T14:13:29.386Z,13.52
2023-02-08T14:15:38.054Z,14.68
2023-02-08T14:17:44.844Z,13.15
2023-02-08T14:19:58.762Z,12.07
2023-02-08T14:22:04.188Z,11.57
2023-02-08T14:24:09.849Z,11.95
2023-02-08T14:26:24.281Z,10.73
2023-02-08T14:28:33.492Z,10.13
2023-02-08T14:30:38.531Z,10.70
2023-02-08T14:32:44.063Z,9.57
2023-02-08T14:34:47.707Z,10.18
2023-02-08T14:37:04.875Z,9.43
2023-02-08T14:39:24.666Z,9.43
2023-02-08T14:41:49.922Z,8.77
2023-02-08T14:43:54.466Z,9.57
2023-02-08T14:45:58.025Z,9.55
2023-02-08T14:48:17.868Z,9.63
2023-02-08T14:50:25.269Z,9.85
2023-02-08T14:52:29.441Z,8.82
2023-02-08T14:54:38.666Z,8.85
2023-02-08T14:56:51.503Z,9.15
2023-02-08T14:59:01.189Z,9.23
2023-02-08T15:01:08.872Z,9.70
2023-02-08T15:03:16.111Z,10.13
2023-02-08T15:05:23.712Z,8.98
2023-02-08T15:07:33.732Z,9.70
2023-02-08T15:09:40.318Z,9.57
2023-02-08T15:11:43.771Z,9.43
2023-02-08T15:13:50.626Z,9.55
2023-02-08T15:15:57.150Z,9.95
2023-02-08T15:18:02.314Z,10.00
2023-02-08T15:20:08.497Z,10.00
2023-02-08T15:22:19.317Z,10.52
2023-02-08T15:24:24.169Z,10.77
2023-02-08T15:26:28.042Z,9.95
2023-02-08T15:28:34.865Z,10.65
2023-02-08T15:30:40.464Z,9.90
2023-02-08T15:32:44.978Z,10.73
2023-02-08T15:34:54.360Z,11.68
2023-02-08T15:36:58.256Z,12.65
2023-02-08T15:39:04.813Z,12.38
2023-02-08T15:41:10.959Z,12.27
2023-02-08T15:43:14.707Z,12.77
2023-02-08T15:45:24.538Z,13.40
2023-02-08T15:47:29.558Z,12.80
2023-02-08T15:49:37.808Z,13.43
2023-02-08T15:51:41.278Z,13.00
2023-02-08T15:53:46.723Z,13.88
2023-02-08T15:55:53.403Z,13.95
2023-02-08T15:57:59.972Z,14.38
2023-02-08T16:00:05.296Z,14.75
2023-02-08T16:02:23.811Z,14.45
2023-02-08T16:04:27.439Z,12.93
2023-02-08T16:06:36.785Z,14.07
2023-02-08T16:08:44.179Z,14.65
2023-02-08T16:10:50.388Z,14.75
2023-02-08T16:12:54.646Z,14.05
2023-02-08T16:14:58.283Z,14.13
2023-02-08T16:17:01.453Z,14.88
2023-02-08T16:19:06.572Z,14.90
2023-02-08T16:21:28.622Z,14.27
2023-02-08T16:23:34.202Z,14.52
2023-02-08T16:25:44.455Z,14.73
2023-02-08T16:27:49.443Z,15.13
2023-02-08T16:29:52.697Z,14.70
2023-02-08T16:32:07.916Z,15.05
2023-02-08T16:34:17.294Z,14.75
2023-02-08T16:36:24.187Z,14.52
2023-02-08T16:38:27.557Z,14.25
2023-02-08T16:40:48.748Z,14.65
2023-02-08T16:42:51.856Z,15.05
2023-02-08T16:45:16.931Z,14.05
2023-02-08T16:47:27.859Z,14.20
2023-02-08T16:49:30.968Z,10.25
2023-02-08T16:51:35.749Z,13.57
2023-02-08T16:53:42.201Z,13.57
2023-02-08T16:55:47.141Z,13.05
2023-02-08T16:57:52.542Z,13.30
2023-02-08T16:59:56.711Z,13.35
2023-02-08T17:01:59.964Z,13.82
2023-02-08T17:04:03.109Z,13.98
2023-02-08T17:06:06.999Z,13.18
2023-02-08T17:08:15.906Z,14.15
2023-02-08T17:10:27.555Z,13.75
2023-02-08T17:12:33.102Z,15.02
2023-02-08T17:14:36.151Z,14.55
2023-02-08T17:16:39.944Z,15.23
2023-02-08T17:18:43.033Z,15.25
2023-02-08T17:20:47.072Z,16.23
2023-02-08T17:22:51.063Z,15.15
2023-02-08T17:24:54.195Z,16.45
2023-02-08T17:26:57.338Z,15.82
2023-02-08T17:29:01.809Z,17.00
2023-02-08T17:31:05.218Z,17.25
2023-02-08T17:33:11.438Z,16.40
2023-02-08T17:35:17.303Z,16.55
2023-02-08T17:37:21.586Z,18.17
2023-02-08T17:39:26.306Z,16.73
2023-02-08T17:41:29.462Z,17.58
2023-02-08T17:43:32.993Z,16.63
2023-02-08T17:45:41.310Z,17.20
2023-02-08T17:47:45.013Z,17.00
2023-02-08T17:49:48.305Z,17.27
2023-02-08T17:51:51.481Z,17.20
2023-02-08T17:53:55.281Z,17.80
2023-02-08T17:55:58.302Z,17.55
2023-02-08T17:58:01.329Z,17.55
2023-02-08T18:00:05.069Z,17.60
2023-02-08T18:02:16.533Z,17.83
2023-02-08T18:04:19.579Z,18.17
2023-02-08T18:06:23.836Z,17.95
2023-02-08T18:08:27.494Z,17.92
2023-02-08T18:10:30.546Z,18.45
2023-02-08T18:12:35.553Z,19.92
2023-02-08T18:14:39.201Z,19.63
2023-02-08T18:16:42.321Z,20.38
2023-02-08T18:18:47.119Z,19.05
2023-02-08T18:20:50.210Z,19.95
2023-02-08T18:22:53.544Z,20.60
2023-02-08T18:24:56.760Z,19.48
2023-02-08T18:27:00.105Z,20.50
2023-02-08T18:29:05.029Z,20.02
2023-02-08T18:31:10.772Z,21.17
2023-02-08T18:33:14.101Z,20.15
2023-02-08T18:35:18.704Z,20.75
2023-02-08T18:37:22.330Z,20.88
2023-02-08T18:39:25.595Z,20.77
2023-02-08T18:41:30.832Z,20.90
2023-02-08T18:43:34.122Z,20.73
2023-02-08T18:45:37.363Z,20.15
2023-02-08T18:47:40.557Z,20.77
2023-02-08T18:49:43.724Z,20.23
2023-02-08T18:51:48.934Z,21.40
2023-02-08T18:53:54.906Z,19.98
2023-02-08T18:56:00.513Z,21.20
2023-02-08T18:58:20.339Z,20.90
2023-02-08T19:00:24.345Z,20.98
2023-02-08T19:02:28.215Z,20.38
2023-02-08T19:04:31.496Z,20.75
2023-02-08T19:06:37.225Z,20.58
2023-02-08T19:08:42.583Z,19.95
2023-02-08T19:10:45.832Z,20.63
2023-02-08T19:12:48.908Z,21.80
2023-02-08T19:14:52.004Z,20.73
2023-02-08T19:16:55.847Z,19.05
2023-02-08T19:19:00.381Z,20.17
2023-02-08T19:21:07.640Z,20.88
2023-02-08T19:23:10.758Z,20.85
2023-02-08T19:25:15.350Z,21.63
2023-02-08T19:27:18.410Z,20.73
2023-02-08T19:29:22.741Z,20.55
2023-02-08T19:31:28.301Z,20.55
2023-02-08T19:33:31.521Z,20.95
2023-02-08T19:35:38.397Z,20.88
2023-02-08T19:37:42.431Z,21.50
2023-02-08T19:39:45.683Z,20.55
2023-02-08T19:41:51.117Z,21.20
2023-02-08T19:43:54.251Z,21.45
2023-02-08T19:45:57.403Z,21.27
2023-02-08T19:48:00.527Z,21.48
2023-02-08T19:50:03.719Z,21.95
2023-02-08T19:52:06.778Z,21.52
2023-02-08T19:54:17.080Z,21.75
2023-02-08T19:56:20.725Z,22.25
2023-02-08T19:58:25.508Z,22.55
2023-02-08T20:00:28.555Z,22.77
2023-02-08T20:02:31.690Z,22.63
2023-02-08T20:04:34.845Z,22.65
2023-02-08T20:06:38.766Z,22.63
2023-02-08T20:08:41.905Z,22.00
2023-02-08T20:10:46.899Z,22.17
2023-02-08T20:12:50.082Z,22.17
2023-02-08T20:14:54.715Z,23.63
2023-02-08T20:16:57.874Z,22.58
2023-02-08T20:19:01.539Z,22.92
2023-02-08T20:21:05.294Z,23.15
2023-02-08T20:23:22.016Z,22.65
2023-02-08T20:25:25.825Z,23.48
2023-02-08T20:27:32.154Z,24.17
2023-02-08T20:29:35.283Z,24.88
2023-02-08T20:31:42.550Z,23.67
2023-02-08T20:33:46.312Z,24.00
2023-02-08T20:35:49.383Z,24.38
2023-02-08T20:37:52.410Z,25.25
2023-02-08T20:39:55.615Z,24.10
2023-02-08T20:41:58.967Z,24.63
2023-02-08T20:44:02.899Z,25.58
2023-02-08T20:46:07.246Z,25.30
2023-02-08T20:48:11.674Z,24.65
2023-02-08T20:50:19.256Z,25.50
2023-02-08T20:52:23.919Z,25.60
2023-02-08T20:54:27.005Z,25.13
2023-02-08T20:56:32.760Z,25.05
2023-02-08T20:58:36.044Z,24.63
2023-02-08T21:00:42.642Z,26.13
2023-02-08T21:02:46.715Z,25.63
2023-02-08T21:04:51.353Z,24.95
2023-02-08T21:06:54.428Z,26.08
2023-02-08T21:08:58.597Z,25.73
2023-02-08T21:11:02.647Z,25.52
2023-02-08T21:13:05.715Z,26.35
2023-02-08T21:15:10.121Z,26.90
2023-02-08T21:17:13.224Z,27.55
2023-02-08T21:19:17.340Z,26.58
2023-02-08T21:21:22.148Z,27.75
2023-02-08T21:23:25.271Z,26.80
2023-02-08T21:25:28.434Z,26.77
2023-02-08T21:27:31.543Z,26.30
2023-02-08T21:29:34.707Z,26.77
2023-02-08T21:31:38.223Z,26.70
2023-02-08T21:33:42.312Z,26.83
2023-02-08T21:35:45.514Z,26.90
2023-02-08T21:37:49.967Z,26.25
2023-02-08T21:39:52.980Z,27.90
2023-02-08T21:41:56.399Z,27.33
2023-02-08T21:44:02.269Z,26.75
2023-02-08T21:46:06.451Z,27.80
2023-02-08T21:48:09.543Z,26.58
2023-02-08T21:50:30.354Z,28.55
2023-02-08T21:52:51.318Z,27.63
2023-02-08T21:54:55.914Z,27.30
2023-02-08T21:57:00.701Z,26.52
2023-02-08T21:59:03.983Z,27.63
2023-02-08T22:01:07.218Z,28.27
2023-02-08T22:03:10.413Z,28.08
2023-02-08T22:05:13.575Z,27.92
2023-02-08T22:07:17.378Z,27.05
2023-02-08T22:09:21.951Z,30.35
2023-02-08T22:11:26.374Z,28.50
2023-02-08T22:13:29.466Z,29.63
2023-02-08T22:15:34.938Z,28.77
2023-02-08T22:17:38.127Z,28.75
2023-02-08T22:19:42.262Z,28.73
2023-02-08T22:21:45.331Z,27.50
2023-02-08T22:23:48.476Z,28.08
2023-02-08T22:25:51.546Z,27.67
2023-02-08T22:27:56.210Z,29.10
2023-02-08T22:29:59.295Z,28.08
2023-02-08T22:32:02.441Z,28.42
2023-02-08T22:34:05.889Z,28.80
2023-02-08T22:36:10.867Z,28.88
2023-02-08T22:38:13.989Z,29.67
2023-02-08T22:40:17.478Z,28.17
2023-02-08T22:42:20.524Z,29.13
2023-02-08T22:44:24.966Z,28.65
2023-02-08T22:46:28.112Z,28.63
2023-02-08T22:48:31.201Z,29.38
2023-02-08T22:50:34.290Z,28.77
2023-02-08T22:52:37.391Z,29.08
2023-02-08T22:54:40.467Z,29.77
2023-02-08T22:56:43.478Z,28.50
2023-02-08T22:58:46.623Z,28.92
2023-02-08T23:00:51.269Z,29.38
2023-02-08T23:02:54.403Z,29.05
2023-02-08T23:04:57.568Z,27.98
2023-02-08T23:07:01.170Z,28.23
2023-02-08T23:09:06.070Z,28.00
2023-02-08T23:11:09.265Z,29.05
2023-02-08T23:13:12.893Z,28.23
2023-02-08T23:15:15.937Z,28.38
2023-02-08T23:17:20.362Z,29.42
2023-02-08T23:19:23.379Z,28.70
2023-02-08T23:21:26.438Z,29.10
2023-02-08T23:23:29.430Z,29.10
2023-02-08T23:25:32.519Z,28.88
2023-02-08T23:27:35.562Z,28.92
2023-02-08T23:29:38.643Z,30.20
2023-02-08T23:31:42.029Z,29.10
2023-02-08T23:33:46.470Z,28.88
2023-02-08T23:35:49.499Z,29.33
2023-02-08T23:37:52.587Z,30.00
2023-02-08T23:39:55.620Z,29.38
2023-02-08T23:41:58.688Z,31.63
2023-02-08T23:44:01.699Z,30.20
2023-02-08T23:46:07.582Z,30.95
2023-02-08T23:48:10.610Z,30.23
2023-02-08T23:50:15.222Z,29.13
2023-02-08T23:52:18.690Z,29.73
2023-02-08T23:54:21.735Z,30.77
2023-02-08T23:56:26.503Z,32.00
2023-02-08T23:58:29.560Z,31.60
